createdAt,value
2022-09-30T00:00:10.649Z,6.37
2022-09-30T00:05:33.953Z,6.41
2022-09-30T00:10:37.263Z,6.50
2022-09-30T00:15:40.572Z,6.46
2022-09-30T00:20:43.923Z,6.31
2022-09-30T00:25:48.481Z,6.18
2022-09-30T00:30:51.763Z,6.11
2022-09-30T00:35:55.463Z,5.99
2022-09-30T00:41:01.813Z,6.02
2022-09-30T00:46:06.648Z,6.05
2022-09-30T00:51:10.827Z,6.10
2022-09-30T00:56:26.841Z,6.11
2022-09-30T01:01:31.584Z,6.03
2022-09-30T01:06:34.986Z,5.99
2022-09-30T01:11:38.309Z,6.00
2022-09-30T01:16:44.071Z,5.94
2022-09-30T01:21:59.261Z,5.93
2022-09-30T01:27:24.278Z,5.86
2022-09-30T01:33:01.286Z,5.79
2022-09-30T01:38:18.045Z,5.84
2022-09-30T01:43:47.329Z,5.89
2022-09-30T01:49:11.425Z,6.01
2022-09-30T01:55:00.816Z,6.07
2022-09-30T02:00:09.737Z,6.13
2022-09-30T02:05:22.393Z,6.05
2022-09-30T02:10:53.523Z,5.84
2022-09-30T02:16:02.945Z,5.73
2022-09-30T02:21:11.118Z,5.70
2022-09-30T02:26:25.277Z,5.80
2022-09-30T02:31:32.195Z,5.84
2022-09-30T02:37:00.493Z,5.85
2022-09-30T02:42:16.706Z,5.71
2022-09-30T02:47:30.163Z,5.57
2022-09-30T02:53:52.729Z,5.52
2022-09-30T02:58:58.103Z,5.44
2022-09-30T03:04:07.339Z,5.41
2022-09-30T03:09:11.079Z,5.46
2022-09-30T03:14:38.843Z,5.47
2022-09-30T03:20:15.096Z,5.51
2022-09-30T03:25:59.807Z,5.55
2022-09-30T03:31:38.606Z,5.56
2022-09-30T03:37:22.319Z,5.55
2022-09-30T03:42:39.855Z,5.44
2022-09-30T03:47:52.793Z,5.31
2022-09-30T03:52:56.413Z,5.15
2022-09-30T03:58:00.132Z,5.10
2022-09-30T04:03:03.443Z,5.11
2022-09-30T04:08:06.962Z,5.20
2022-09-30T04:13:11.804Z,5.24
2022-09-30T04:18:15.069Z,5.19
2022-09-30T04:23:18.331Z,5.14
2022-09-30T04:28:23.387Z,5.18
2022-09-30T04:33:27.472Z,5.16
2022-09-30T04:38:32.052Z,5.12
2022-09-30T04:43:35.357Z,5.07
2022-09-30T04:48:38.883Z,5.04
2022-09-30T04:53:43.010Z,5.05
2022-09-30T04:58:47.151Z,5.11
2022-09-30T05:03:51.065Z,5.16
2022-09-30T05:08:54.473Z,5.18
2022-09-30T05:13:57.792Z,5.27
2022-09-30T05:19:01.409Z,5.28
2022-09-30T05:24:04.930Z,5.23
2022-09-30T05:29:10.903Z,5.05
2022-09-30T05:34:17.084Z,5.01
2022-09-30T05:39:20.760Z,5.01
2022-09-30T05:44:24.238Z,5.06
2022-09-30T05:49:28.455Z,5.19
2022-09-30T05:54:31.969Z,5.34
2022-09-30T05:59:35.792Z,5.57
2022-09-30T06:04:39.207Z,5.71
2022-09-30T06:09:46.348Z,5.89
2022-09-30T06:14:49.816Z,6.08
2022-09-30T06:19:53.439Z,6.17
2022-09-30T06:24:57.467Z,6.30
2022-09-30T06:30:01.193Z,6.50
2022-09-30T06:35:05.681Z,6.64
2022-09-30T06:40:10.264Z,6.74
2022-09-30T06:45:23.682Z,6.91
2022-09-30T06:50:33.388Z,7.05
2022-09-30T06:55:39.552Z,7.24
2022-09-30T07:00:43.079Z,7.40
2022-09-30T07:05:46.450Z,7.62
2022-09-30T07:10:50.163Z,7.87
2022-09-30T07:15:56.795Z,8.14
2022-09-30T07:21:00.136Z,8.38
2022-09-30T07:26:05.873Z,8.71
2022-09-30T07:31:33.476Z,9.06
2022-09-30T07:36:41.532Z,9.31
2022-09-30T07:41:45.468Z,9.50
2022-09-30T07:46:49.021Z,9.77
2022-09-30T07:51:58.783Z,10.14
2022-09-30T07:57:10.085Z,10.50
2022-09-30T08:02:18.364Z,10.60
2022-09-30T08:07:22.261Z,10.81
2022-09-30T08:12:25.649Z,11.06
2022-09-30T08:17:29.060Z,11.22
2022-09-30T08:22:32.478Z,11.38
2022-09-30T08:27:36.425Z,11.59
2022-09-30T08:32:39.919Z,11.79
2022-09-30T08:37:43.335Z,11.87
2022-09-30T08:43:24.653Z,11.96
2022-09-30T08:48:50.885Z,11.97
2022-09-30T08:53:57.983Z,12.26
2022-09-30T08:59:30.998Z,12.58
2022-09-30T09:04:34.443Z,12.83
2022-09-30T09:10:18.371Z,13.21
2022-09-30T09:15:37.966Z,13.17
2022-09-30T09:21:00.116Z,13.31
2022-09-30T09:26:05.368Z,13.45
2022-09-30T09:31:17.571Z,13.30
2022-09-30T09:37:06.916Z,13.25
2022-09-30T09:42:36.330Z,13.27
2022-09-30T09:47:39.621Z,13.50
2022-09-30T09:53:39.969Z,13.76
2022-09-30T09:59:19.757Z,13.90
2022-09-30T10:04:31.299Z,13.78
2022-09-30T10:09:39.479Z,13.79
2022-09-30T10:14:50.667Z,13.75
2022-09-30T10:20:01.200Z,13.73
2022-09-30T10:25:21.595Z,13.83
2022-09-30T10:30:55.532Z,13.96
2022-09-30T10:36:13.027Z,14.08
2022-09-30T10:41:24.907Z,14.16
2022-09-30T10:46:42.009Z,14.27
2022-09-30T10:51:46.855Z,14.44
2022-09-30T10:56:53.638Z,14.58
2022-09-30T11:02:11.553Z,14.64
2022-09-30T11:07:27.678Z,14.63
2022-09-30T11:13:25.260Z,14.48
2022-09-30T11:18:52.792Z,14.45
2022-09-30T11:24:30.255Z,14.43
2022-09-30T11:30:24.251Z,14.35
2022-09-30T11:35:43.743Z,14.38
2022-09-30T11:41:07.476Z,14.38
2022-09-30T11:46:54.673Z,14.33
2022-09-30T11:52:35.773Z,14.34
2022-09-30T11:58:00.672Z,14.44
2022-09-30T12:03:17.958Z,14.26
2022-09-30T12:08:30.985Z,14.19
2022-09-30T12:13:41.346Z,14.29
2022-09-30T12:18:54.192Z,14.48
2022-09-30T12:24:11.727Z,14.68
2022-09-30T12:29:37.567Z,14.73
2022-09-30T12:35:25.422Z,14.62
2022-09-30T12:41:01.557Z,14.65
2022-09-30T12:46:15.694Z,14.76
2022-09-30T12:51:35.685Z,14.82
2022-09-30T12:56:44.596Z,15.03
2022-09-30T13:01:49.214Z,15.26
2022-09-30T13:06:52.667Z,15.41
2022-09-30T13:11:56.004Z,15.52
2022-09-30T13:17:08.209Z,15.46
2022-09-30T13:22:29.933Z,15.46
2022-09-30T13:27:55.641Z,15.38
2022-09-30T13:32:59.922Z,15.27
2022-09-30T13:38:40.499Z,15.10
2022-09-30T13:44:04.288Z,15.01
2022-09-30T13:50:05.354Z,15.14
2022-09-30T13:55:22.929Z,15.22
2022-09-30T14:00:50.614Z,15.03
2022-09-30T14:06:39.570Z,14.85
2022-09-30T14:12:12.622Z,14.67
2022-09-30T14:17:52.650Z,14.55
2022-09-30T14:22:57.344Z,14.45
2022-09-30T14:28:08.666Z,14.39
2022-09-30T14:33:24.494Z,14.35
2022-09-30T14:38:31.492Z,14.29
2022-09-30T14:43:43.055Z,14.20
2022-09-30T14:48:50.891Z,14.14
2022-09-30T14:54:02.846Z,14.11
2022-09-30T14:59:25.051Z,14.10
2022-09-30T15:04:41.260Z,14.10
2022-09-30T15:09:48.454Z,14.12
2022-09-30T15:14:57.534Z,14.12
2022-09-30T15:20:01.061Z,14.09
2022-09-30T15:25:05.706Z,14.05
2022-09-30T15:30:15.159Z,14.05
2022-09-30T15:35:24.206Z,14.08
2022-09-30T15:40:46.161Z,14.09
2022-09-30T15:45:51.727Z,14.06
2022-09-30T15:51:03.498Z,14.01
2022-09-30T15:56:25.885Z,13.91
2022-09-30T16:01:45.478Z,13.78
2022-09-30T16:07:09.891Z,13.67
2022-09-30T16:12:13.157Z,13.64
2022-09-30T16:17:30.222Z,13.64
2022-09-30T16:22:42.869Z,13.53
2022-09-30T16:27:47.102Z,13.43
2022-09-30T16:32:55.416Z,13.28
2022-09-30T16:38:02.951Z,13.15
2022-09-30T16:43:08.084Z,13.01
2022-09-30T16:48:17.653Z,12.83
2022-09-30T16:53:21.161Z,12.72
2022-09-30T16:58:24.991Z,12.62
2022-09-30T17:03:28.504Z,12.57
2022-09-30T17:08:32.322Z,12.59
2022-09-30T17:13:36.009Z,12.55
2022-09-30T17:18:39.478Z,12.49
2022-09-30T17:23:42.934Z,12.39
2022-09-30T17:28:46.495Z,12.28
2022-09-30T17:33:49.904Z,12.14
2022-09-30T17:38:55.109Z,11.96
2022-09-30T17:44:01.173Z,11.75
2022-09-30T17:49:04.655Z,11.59
2022-09-30T17:54:10.837Z,11.50
2022-09-30T17:59:14.209Z,11.45
2022-09-30T18:04:21.753Z,11.40
2022-09-30T18:09:25.203Z,11.34
2022-09-30T18:14:35.338Z,11.22
2022-09-30T18:19:38.753Z,11.08
2022-09-30T18:25:00.908Z,10.98
2022-09-30T18:30:06.768Z,10.92
2022-09-30T18:35:12.555Z,10.72
2022-09-30T18:40:19.491Z,10.52
2022-09-30T18:45:24.342Z,10.44
2022-09-30T18:50:29.922Z,10.40
2022-09-30T18:55:33.280Z,10.37
2022-09-30T19:00:38.161Z,10.34
2022-09-30T19:05:42.040Z,10.19
2022-09-30T19:10:45.563Z,10.05
2022-09-30T19:15:48.973Z,9.95
2022-09-30T19:20:52.486Z,9.84
2022-09-30T19:25:55.903Z,9.80
2022-09-30T19:31:04.345Z,9.72
2022-09-30T19:36:14.943Z,9.61
2022-09-30T19:41:19.341Z,9.51
2022-09-30T19:46:22.777Z,9.39
2022-09-30T19:51:28.435Z,9.36
2022-09-30T19:56:32.062Z,9.39
2022-09-30T20:01:36.241Z,9.45
2022-09-30T20:06:41.241Z,9.54
2022-09-30T20:11:45.673Z,9.52
2022-09-30T20:16:49.361Z,9.49
2022-09-30T20:21:54.715Z,9.38
2022-09-30T20:26:58.584Z,9.38
2022-09-30T20:32:02.569Z,9.33
2022-09-30T20:37:06.121Z,9.27
2022-09-30T20:42:09.496Z,9.31
2022-09-30T20:47:12.846Z,9.35
2022-09-30T20:52:16.259Z,9.40
2022-09-30T20:57:19.671Z,9.47
2022-09-30T21:02:27.877Z,9.35
2022-09-30T21:07:31.368Z,9.24
2022-09-30T21:12:34.728Z,9.19
2022-09-30T21:17:40.567Z,9.08
2022-09-30T21:22:44.011Z,8.97
2022-09-30T21:27:49.271Z,8.92
2022-09-30T21:32:52.890Z,8.90
2022-09-30T21:37:56.300Z,8.90
2022-09-30T21:42:59.669Z,8.99
2022-09-30T21:48:06.575Z,9.07
2022-09-30T21:53:10.435Z,9.01
2022-09-30T21:58:15.218Z,8.87
2022-09-30T22:03:19.131Z,8.81
2022-09-30T22:08:23.135Z,8.79
2022-09-30T22:13:26.649Z,8.77
2022-09-30T22:18:32.417Z,8.83
2022-09-30T22:23:35.855Z,8.89
2022-09-30T22:28:40.542Z,8.87
2022-09-30T22:34:02.934Z,8.90
2022-09-30T22:39:06.350Z,8.90
2022-09-30T22:44:09.969Z,8.86
2022-09-30T22:49:13.896Z,8.72
2022-09-30T22:54:17.618Z,8.58
2022-09-30T22:59:23.228Z,8.60
2022-09-30T23:04:27.723Z,8.70
2022-09-30T23:09:31.547Z,8.78
2022-09-30T23:14:34.956Z,8.87
2022-09-30T23:19:38.371Z,8.86
2022-09-30T23:24:41.745Z,8.75
2022-09-30T23:29:45.201Z,8.66
2022-09-30T23:34:48.613Z,8.65
2022-09-30T23:39:51.930Z,8.64
2022-09-30T23:44:55.337Z,8.60
2022-09-30T23:49:58.750Z,8.66
2022-09-30T23:55:02.573Z,8.74
